createdAt,value
2023-03-27T00:01:16.260Z,1.60
2023-03-27T00:03:43.267Z,1.60
2023-03-27T00:06:16.305Z,1.70
2023-03-27T00:08:51.124Z,1.13
2023-03-27T00:11:18.822Z,1.52
2023-03-27T00:13:50.445Z,1.47
2023-03-27T00:16:22.812Z,1.60
2023-03-27T00:18:49.470Z,1.63
2023-03-27T00:21:16.054Z,1.90
2023-03-27T00:23:42.670Z,1.40
2023-03-27T00:26:09.260Z,2.08
2023-03-27T00:28:36.453Z,1.50
2023-03-27T00:31:03.494Z,1.90
2023-03-27T00:33:30.191Z,1.70
2023-03-27T00:35:56.894Z,1.60
2023-03-27T00:38:24.357Z,1.27
2023-03-27T00:40:54.684Z,1.27
2023-03-27T00:43:30.591Z,1.75
2023-03-27T00:46:22.385Z,1.50
2023-03-27T00:48:51.484Z,1.75
2023-03-27T00:51:20.216Z,1.33
2023-03-27T00:53:47.589Z,1.50
2023-03-27T00:56:16.515Z,1.67
2023-03-27T00:58:46.642Z,1.77
2023-03-27T01:01:15.089Z,1.88
2023-03-27T01:03:44.542Z,2.13
2023-03-27T01:06:13.958Z,1.65
2023-03-27T01:08:43.158Z,2.47
2023-03-27T01:11:36.008Z,1.55
2023-03-27T01:14:02.538Z,1.83
2023-03-27T01:16:50.086Z,1.70
2023-03-27T01:19:41.857Z,2.28
2023-03-27T01:22:28.674Z,1.73
2023-03-27T01:25:01.056Z,1.63
2023-03-27T01:27:39.789Z,1.58
2023-03-27T01:30:15.362Z,1.88
2023-03-27T01:32:59.901Z,2.10
2023-03-27T01:35:37.218Z,1.80
2023-03-27T01:38:28.723Z,1.47
2023-03-27T01:41:21.440Z,1.50
2023-03-27T01:43:54.002Z,1.50
2023-03-27T01:46:35.266Z,1.65
2023-03-27T01:49:24.964Z,1.85
2023-03-27T01:52:00.648Z,2.00
2023-03-27T01:54:30.995Z,1.70
2023-03-27T01:57:16.436Z,2.42
2023-03-27T01:59:46.598Z,1.70
2023-03-27T02:02:33.413Z,1.65
2023-03-27T02:05:06.816Z,1.67
2023-03-27T02:07:41.092Z,2.35
2023-03-27T02:10:12.294Z,2.08
2023-03-27T02:12:43.376Z,1.90
2023-03-27T02:15:24.448Z,2.95
2023-03-27T02:18:10.042Z,1.83
2023-03-27T02:20:38.476Z,1.55
2023-03-27T02:25:39.999Z,1.60
2023-03-27T02:28:35.459Z,1.55
2023-03-27T02:31:34.046Z,1.42
2023-03-27T02:34:13.383Z,1.60
2023-03-27T02:37:21.384Z,1.50
2023-03-27T02:40:04.560Z,1.45
2023-03-27T02:42:54.265Z,1.98
2023-03-27T02:45:26.821Z,2.00
2023-03-27T02:47:58.763Z,2.05
2023-03-27T02:50:30.726Z,2.45
2023-03-27T02:53:02.193Z,1.65
2023-03-27T02:55:38.593Z,1.55
2023-03-27T02:58:19.083Z,1.60
2023-03-27T03:00:50.779Z,2.35
2023-03-27T03:03:53.860Z,1.80
2023-03-27T03:06:21.547Z,1.73
2023-03-27T03:08:49.214Z,1.42
2023-03-27T03:11:15.927Z,1.45
2023-03-27T03:13:42.649Z,1.80
2023-03-27T03:16:10.190Z,1.50
2023-03-27T03:18:37.026Z,1.77
2023-03-27T03:21:04.813Z,2.38
2023-03-27T03:23:32.013Z,1.55
2023-03-27T03:25:58.715Z,1.92
2023-03-27T03:28:28.490Z,1.38
2023-03-27T03:30:55.608Z,1.45
2023-03-27T03:33:22.570Z,1.90
2023-03-27T03:35:50.275Z,1.70
2023-03-27T03:38:25.127Z,1.30
2023-03-27T03:40:53.887Z,1.65
2023-03-27T03:43:21.943Z,1.88
2023-03-27T03:45:49.064Z,2.13
2023-03-27T03:48:16.340Z,1.95
2023-03-27T03:50:44.964Z,1.60
2023-03-27T03:55:38.438Z,1.50
2023-03-27T03:58:05.208Z,1.60
2023-03-27T04:00:34.576Z,1.85
2023-03-27T04:03:01.625Z,1.90
2023-03-27T04:05:28.213Z,1.88
2023-03-27T04:07:54.826Z,1.60
2023-03-27T04:10:21.389Z,1.70
2023-03-27T04:12:48.743Z,1.98
2023-03-27T04:15:16.583Z,1.63
2023-03-27T04:17:44.526Z,1.75
2023-03-27T04:20:13.185Z,1.67
2023-03-27T04:22:46.342Z,1.52
2023-03-27T04:25:14.928Z,2.03
2023-03-27T04:27:43.293Z,1.85
2023-03-27T04:32:37.294Z,1.77
2023-03-27T04:35:04.106Z,1.58
2023-03-27T04:37:30.691Z,1.42
2023-03-27T04:39:58.337Z,2.17
2023-03-27T04:42:24.904Z,1.30
2023-03-27T04:44:52.578Z,2.40
2023-03-27T04:47:20.445Z,1.95
2023-03-27T04:49:47.156Z,1.75
2023-03-27T04:52:16.986Z,1.70
2023-03-27T04:54:45.191Z,2.20
2023-03-27T04:57:12.199Z,2.47
2023-03-27T04:59:38.813Z,1.60
2023-03-27T05:02:06.536Z,2.03
2023-03-27T05:04:33.657Z,1.92
2023-03-27T05:07:00.783Z,1.90
2023-03-27T05:09:27.423Z,1.70
2023-03-27T05:11:54.008Z,1.80
2023-03-27T05:14:22.754Z,1.83
2023-03-27T05:16:52.697Z,1.55
2023-03-27T05:19:20.145Z,1.90
2023-03-27T05:21:47.277Z,1.83
2023-03-27T05:24:15.460Z,1.80
2023-03-27T05:26:43.093Z,2.45
2023-03-27T05:29:10.057Z,1.70
2023-03-27T05:31:37.469Z,1.95
2023-03-27T05:34:05.726Z,1.63
2023-03-27T05:36:32.392Z,1.70
2023-03-27T05:38:58.962Z,2.25
2023-03-27T05:41:25.576Z,2.00
2023-03-27T05:43:52.257Z,2.38
2023-03-27T05:46:20.577Z,2.10
2023-03-27T05:48:48.266Z,2.00
2023-03-27T05:51:15.069Z,2.20
2023-03-27T05:53:42.219Z,2.17
2023-03-27T05:56:09.605Z,2.05
2023-03-27T05:58:36.455Z,2.07
2023-03-27T06:01:03.450Z,2.63
2023-03-27T06:03:30.522Z,2.15
2023-03-27T06:06:00.336Z,2.67
2023-03-27T06:08:28.746Z,2.50
2023-03-27T06:13:24.118Z,1.98
2023-03-27T06:15:53.494Z,1.90
2023-03-27T06:18:20.190Z,1.60
2023-03-27T06:20:46.805Z,2.03
2023-03-27T06:23:13.434Z,2.30
2023-03-27T06:25:40.075Z,2.17
2023-03-27T06:28:09.455Z,2.25
2023-03-27T06:30:39.726Z,1.77
2023-03-27T06:33:07.802Z,2.30
2023-03-27T06:35:35.183Z,1.70
2023-03-27T06:38:04.808Z,2.15
2023-03-27T06:40:35.225Z,1.73
2023-03-27T06:43:06.691Z,1.48
2023-03-27T06:45:37.520Z,1.60
2023-03-27T06:48:15.107Z,1.75
2023-03-27T06:50:47.534Z,2.10
2023-03-27T06:55:47.857Z,1.40
2023-03-27T06:58:14.624Z,1.83
2023-03-27T07:00:41.854Z,1.70
2023-03-27T07:03:10.177Z,1.60
2023-03-27T07:08:21.149Z,1.60
2023-03-27T07:10:59.727Z,1.40
2023-03-27T07:13:34.864Z,1.42
2023-03-27T07:16:01.492Z,1.52
2023-03-27T07:18:28.152Z,1.50
2023-03-27T07:20:54.922Z,1.45
2023-03-27T07:23:21.733Z,2.13
2023-03-27T07:25:50.282Z,1.75
2023-03-27T07:28:18.613Z,1.73
2023-03-27T07:30:45.448Z,2.75
2023-03-27T07:33:12.921Z,1.60
2023-03-27T07:35:47.255Z,2.28
2023-03-27T07:38:14.470Z,1.58
2023-03-27T07:40:43.181Z,1.75
2023-03-27T07:43:09.851Z,3.05
2023-03-27T07:45:36.811Z,2.00
2023-03-27T07:48:14.125Z,1.50
2023-03-27T07:50:40.670Z,1.63
2023-03-27T07:53:07.338Z,1.42
2023-03-27T07:55:36.822Z,2.08
2023-03-27T07:58:04.205Z,1.85
2023-03-27T08:00:32.563Z,1.48
2023-03-27T08:03:10.764Z,1.40
2023-03-27T08:08:05.082Z,1.67
2023-03-27T08:10:32.208Z,1.60
2023-03-27T08:12:58.848Z,1.70
2023-03-27T08:15:25.595Z,1.40
2023-03-27T08:17:55.088Z,1.60
2023-03-27T08:20:23.903Z,1.02
2023-03-27T08:22:52.574Z,1.27
2023-03-27T08:27:46.691Z,1.30
2023-03-27T08:30:16.652Z,1.00
2023-03-27T08:32:44.055Z,1.40
2023-03-27T08:35:10.778Z,1.65
2023-03-27T08:37:38.016Z,1.40
2023-03-27T08:40:12.462Z,1.45
2023-03-27T08:42:41.199Z,1.85
2023-03-27T08:45:24.959Z,1.73
2023-03-27T08:48:23.434Z,1.75
2023-03-27T08:50:54.997Z,1.65
2023-03-27T08:53:42.951Z,1.35
2023-03-27T08:56:14.140Z,1.00
2023-03-27T08:58:41.750Z,1.20
2023-03-27T09:01:41.311Z,1.42
2023-03-27T09:04:26.618Z,1.05
2023-03-27T09:07:14.554Z,1.00
2023-03-27T09:09:46.483Z,0.80
2023-03-27T09:12:50.548Z,0.90
2023-03-27T09:15:26.170Z,0.93
2023-03-27T09:18:15.484Z,1.30
2023-03-27T09:20:55.324Z,1.00
2023-03-27T09:23:36.135Z,1.00
2023-03-27T09:26:09.867Z,1.10
2023-03-27T09:28:39.925Z,1.42
2023-03-27T09:31:56.292Z,1.00
2023-03-27T09:34:26.527Z,0.98
2023-03-27T09:36:54.360Z,0.90
2023-03-27T09:39:26.919Z,0.90
2023-03-27T09:41:57.964Z,0.75
2023-03-27T09:44:28.308Z,1.20
2023-03-27T09:47:14.922Z,0.88
2023-03-27T09:49:56.320Z,1.10
2023-03-27T09:52:38.916Z,1.27
2023-03-27T09:55:31.084Z,1.20
2023-03-27T09:58:15.397Z,0.82
2023-03-27T10:00:42.130Z,1.00
2023-03-27T10:03:18.948Z,1.23
2023-03-27T10:05:47.033Z,1.27
2023-03-27T10:08:38.128Z,1.00
2023-03-27T10:11:08.041Z,1.10
2023-03-27T10:13:34.932Z,1.10
2023-03-27T10:16:08.156Z,0.85
2023-03-27T10:18:42.380Z,1.10
2023-03-27T10:21:18.395Z,0.88
2023-03-27T10:23:49.274Z,0.82
2023-03-27T10:26:21.366Z,0.95
2023-03-27T10:28:51.573Z,1.30
2023-03-27T10:31:49.516Z,1.10
2023-03-27T10:34:55.543Z,1.58
2023-03-27T10:37:26.622Z,1.45
2023-03-27T10:39:55.086Z,1.00
2023-03-27T10:44:49.699Z,0.77
2023-03-27T10:47:22.280Z,1.20
2023-03-27T10:50:18.645Z,1.00
2023-03-27T10:52:45.196Z,1.00
2023-03-27T10:55:23.127Z,1.35
2023-03-27T10:57:54.465Z,1.05
2023-03-27T11:00:32.834Z,1.50
2023-03-27T11:03:23.556Z,1.60
2023-03-27T11:05:53.792Z,1.17
2023-03-27T11:08:23.791Z,1.48
2023-03-27T11:10:52.344Z,1.00
2023-03-27T11:13:34.105Z,1.00
2023-03-27T11:16:27.324Z,1.10
2023-03-27T11:19:12.276Z,1.00
2023-03-27T11:21:43.453Z,1.10
2023-03-27T11:24:16.061Z,1.27
2023-03-27T11:26:50.679Z,1.30
2023-03-27T11:29:23.055Z,1.00
2023-03-27T11:31:52.256Z,0.93
2023-03-27T11:34:34.974Z,1.20
2023-03-27T11:37:05.110Z,0.90
2023-03-27T11:39:41.018Z,1.38
2023-03-27T11:42:16.572Z,1.13
2023-03-27T11:44:43.390Z,1.23
2023-03-27T11:47:28.581Z,0.88
2023-03-27T11:50:17.363Z,1.13
2023-03-27T11:53:21.631Z,1.05
2023-03-27T11:56:16.203Z,0.85
2023-03-27T11:59:04.478Z,0.80
2023-03-27T12:04:59.745Z,0.90
2023-03-27T12:07:48.157Z,0.90
2023-03-27T12:10:34.236Z,1.40
2023-03-27T12:13:19.832Z,0.98
2023-03-27T12:15:47.689Z,0.80
2023-03-27T12:18:51.101Z,1.35
2023-03-27T12:21:46.591Z,0.70
2023-03-27T12:24:24.445Z,0.93
2023-03-27T12:27:12.093Z,0.80
2023-03-27T12:29:53.601Z,0.50
2023-03-27T12:33:04.842Z,0.80
2023-03-27T12:35:53.204Z,0.57
2023-03-27T12:38:28.187Z,0.55
2023-03-27T12:41:05.784Z,0.80
2023-03-27T12:43:39.841Z,0.70
2023-03-27T12:46:09.376Z,0.43
2023-03-27T12:48:52.825Z,0.50
2023-03-27T12:51:20.695Z,0.40
2023-03-27T12:53:49.964Z,1.60
2023-03-27T12:56:16.612Z,0.40
2023-03-27T12:58:51.525Z,0.50
2023-03-27T13:01:51.675Z,0.57
2023-03-27T13:04:37.749Z,0.47
2023-03-27T13:07:19.426Z,0.57
2023-03-27T13:10:05.259Z,1.13
2023-03-27T13:12:52.941Z,0.40
2023-03-27T13:15:31.736Z,0.65
2023-03-27T13:18:44.757Z,0.47
2023-03-27T13:21:37.779Z,0.93
2023-03-27T13:24:41.872Z,0.60
2023-03-27T13:27:28.279Z,0.82
2023-03-27T13:30:58.025Z,0.57
2023-03-27T13:33:30.569Z,0.77
2023-03-27T13:35:57.415Z,0.60
2023-03-27T13:38:51.901Z,0.50
2023-03-27T13:41:40.445Z,0.90
2023-03-27T13:44:12.453Z,0.60
2023-03-27T13:46:45.397Z,0.95
2023-03-27T13:49:17.949Z,0.73
2023-03-27T13:52:18.477Z,0.52
2023-03-27T13:55:25.048Z,0.47
2023-03-27T13:58:03.574Z,0.43
2023-03-27T14:00:47.668Z,0.80
2023-03-27T14:03:46.212Z,0.60
2023-03-27T14:06:31.554Z,0.63
2023-03-27T14:09:16.614Z,0.60
2023-03-27T14:12:15.414Z,0.50
2023-03-27T14:14:41.922Z,0.40
2023-03-27T14:17:29.098Z,0.50
2023-03-27T14:20:08.356Z,0.60
2023-03-27T14:22:42.598Z,0.65
2023-03-27T14:25:19.825Z,0.80
2023-03-27T14:27:50.687Z,0.98
2023-03-27T14:30:21.637Z,0.68
2023-03-27T14:32:49.197Z,0.63
2023-03-27T14:35:36.690Z,0.67
2023-03-27T14:38:14.437Z,0.70
2023-03-27T14:40:51.996Z,0.43
2023-03-27T14:43:19.780Z,0.52
2023-03-27T14:45:46.521Z,0.70
2023-03-27T14:48:46.064Z,0.50
2023-03-27T14:51:15.851Z,0.68
2023-03-27T14:53:44.647Z,0.65
2023-03-27T14:56:25.936Z,0.47
2023-03-27T14:58:54.553Z,0.50
2023-03-27T15:01:21.669Z,0.55
2023-03-27T15:03:49.823Z,0.40
2023-03-27T15:06:19.442Z,0.60
2023-03-27T15:08:50.010Z,0.43
2023-03-27T15:11:20.292Z,0.52
2023-03-27T15:13:48.210Z,0.50
2023-03-27T15:16:23.790Z,0.70
2023-03-27T15:18:58.867Z,0.73
2023-03-27T15:21:45.128Z,0.70
2023-03-27T15:24:20.465Z,0.90
2023-03-27T15:26:48.689Z,0.93
2023-03-27T15:29:18.708Z,0.70
2023-03-27T15:31:49.015Z,0.68
2023-03-27T15:34:15.556Z,0.65
2023-03-27T15:36:43.670Z,0.80
2023-03-27T15:39:20.466Z,0.65
2023-03-27T15:41:51.507Z,0.70
2023-03-27T15:44:22.684Z,1.08
2023-03-27T15:46:53.533Z,0.47
2023-03-27T15:49:36.978Z,1.08
2023-03-27T15:52:28.320Z,0.80
2023-03-27T15:54:55.823Z,1.63
2023-03-27T15:57:22.791Z,2.13
2023-03-27T15:59:51.943Z,0.50
2023-03-27T16:02:21.187Z,0.90
2023-03-27T16:04:58.141Z,0.88
2023-03-27T16:07:30.467Z,0.70
2023-03-27T16:10:02.936Z,0.55
2023-03-27T16:12:35.063Z,0.95
2023-03-27T16:15:05.762Z,0.90
2023-03-27T16:17:40.477Z,0.70
2023-03-27T16:20:11.440Z,0.70
2023-03-27T16:22:38.716Z,0.68
2023-03-27T16:25:08.648Z,0.80
2023-03-27T16:27:40.651Z,0.60
2023-03-27T16:30:09.865Z,0.68
2023-03-27T16:32:36.966Z,0.40
2023-03-27T16:35:03.765Z,0.90
2023-03-27T16:37:30.453Z,0.70
2023-03-27T16:39:58.130Z,0.68
2023-03-27T16:42:26.480Z,0.75
2023-03-27T16:44:53.440Z,0.80
2023-03-27T16:47:20.614Z,0.73
2023-03-27T16:49:56.192Z,0.68
2023-03-27T16:52:34.297Z,0.80
2023-03-27T16:55:02.375Z,0.60
2023-03-27T16:57:29.773Z,1.05
2023-03-27T16:59:56.399Z,1.00
2023-03-27T17:02:25.533Z,0.70
2023-03-27T17:04:52.254Z,0.60
2023-03-27T17:07:18.985Z,0.65
2023-03-27T17:09:45.811Z,0.60
2023-03-27T17:12:12.362Z,0.70
2023-03-27T17:14:39.076Z,0.70
2023-03-27T17:17:05.859Z,0.88
2023-03-27T17:19:32.581Z,1.33
2023-03-27T17:21:59.149Z,1.00
2023-03-27T17:24:26.012Z,1.27
2023-03-27T17:26:54.179Z,0.70
2023-03-27T17:29:21.379Z,0.98
2023-03-27T17:31:48.146Z,0.77
2023-03-27T17:34:14.749Z,1.05
2023-03-27T17:36:47.494Z,1.08
2023-03-27T17:39:19.127Z,0.90
2023-03-27T17:41:45.809Z,0.93
2023-03-27T17:44:12.763Z,1.10
2023-03-27T17:46:39.353Z,0.68
2023-03-27T17:49:05.954Z,0.80
2023-03-27T17:51:34.270Z,0.90
2023-03-27T17:54:01.496Z,0.80
2023-03-27T17:56:28.091Z,0.80
2023-03-27T17:58:56.029Z,0.80
2023-03-27T18:01:23.948Z,0.98
2023-03-27T18:03:51.224Z,1.23
2023-03-27T18:06:18.573Z,0.77
2023-03-27T18:08:46.458Z,0.90
2023-03-27T18:11:15.600Z,1.10
2023-03-27T18:13:42.817Z,0.77
2023-03-27T18:16:10.729Z,0.90
2023-03-27T18:18:39.084Z,0.70
2023-03-27T18:21:06.672Z,1.00
2023-03-27T18:23:34.934Z,1.10
2023-03-27T18:26:06.030Z,1.02
2023-03-27T18:28:32.976Z,0.95
2023-03-27T18:31:10.752Z,0.80
2023-03-27T18:33:37.927Z,1.58
2023-03-27T18:36:10.662Z,0.88
2023-03-27T18:38:42.176Z,0.88
2023-03-27T18:41:09.653Z,0.93
2023-03-27T18:43:36.663Z,0.85
2023-03-27T18:46:05.544Z,0.80
2023-03-27T18:48:32.379Z,0.75
2023-03-27T18:51:01.059Z,0.80
2023-03-27T18:53:28.714Z,0.73
2023-03-27T18:55:55.868Z,0.80
2023-03-27T18:58:26.673Z,0.70
2023-03-27T19:00:54.724Z,0.70
2023-03-27T19:03:25.915Z,0.60
2023-03-27T19:05:53.051Z,0.70
2023-03-27T19:08:21.080Z,0.70
2023-03-27T19:10:47.700Z,1.02
2023-03-27T19:13:14.286Z,0.70
2023-03-27T19:15:42.036Z,0.65
2023-03-27T19:18:09.271Z,0.70
2023-03-27T19:20:35.953Z,1.23
2023-03-27T19:23:02.740Z,0.93
2023-03-27T19:25:29.404Z,1.02
2023-03-27T19:27:56.222Z,0.85
2023-03-27T19:30:23.002Z,1.17
2023-03-27T19:32:50.654Z,0.77
2023-03-27T19:35:17.351Z,0.80
2023-03-27T19:37:43.960Z,0.90
2023-03-27T19:40:11.342Z,1.38
2023-03-27T19:42:37.916Z,0.90
2023-03-27T19:45:05.180Z,0.93
2023-03-27T19:47:31.831Z,2.30
2023-03-27T19:49:59.153Z,0.95
2023-03-27T19:52:26.243Z,0.90
2023-03-27T19:54:53.900Z,1.52
2023-03-27T19:57:20.991Z,0.80
2023-03-27T19:59:47.585Z,1.08
2023-03-27T20:02:14.632Z,1.02
2023-03-27T20:04:41.347Z,0.98
2023-03-27T20:07:10.042Z,1.02
2023-03-27T20:09:37.235Z,1.08
2023-03-27T20:12:04.571Z,0.98
2023-03-27T20:14:31.130Z,1.00
2023-03-27T20:16:57.725Z,1.00
2023-03-27T20:19:30.438Z,1.15
2023-03-27T20:21:59.353Z,1.10
2023-03-27T20:24:26.058Z,1.10
2023-03-27T20:26:54.808Z,1.05
2023-03-27T20:29:22.863Z,1.63
2023-03-27T20:31:49.809Z,1.10
2023-03-27T20:34:19.377Z,1.05
2023-03-27T20:36:46.450Z,1.63
2023-03-27T20:39:14.328Z,1.33
2023-03-27T20:41:41.108Z,1.50
2023-03-27T20:44:34.952Z,0.82
2023-03-27T20:47:11.052Z,1.42
2023-03-27T20:49:41.691Z,1.33
2023-03-27T20:52:17.057Z,1.38
2023-03-27T20:54:44.041Z,1.10
2023-03-27T20:57:11.211Z,1.20
2023-03-27T20:59:38.077Z,1.45
2023-03-27T21:02:05.208Z,1.08
2023-03-27T21:04:32.063Z,1.30
2023-03-27T21:06:58.961Z,1.08
2023-03-27T21:09:26.815Z,1.65
2023-03-27T21:11:55.130Z,1.10
2023-03-27T21:16:48.664Z,1.25
2023-03-27T21:19:15.968Z,1.48
2023-03-27T21:21:42.627Z,1.92
2023-03-27T21:24:09.287Z,1.40
2023-03-27T21:26:36.028Z,1.65
2023-03-27T21:29:03.385Z,1.15
2023-03-27T21:31:30.315Z,1.20
2023-03-27T21:33:57.035Z,1.13
2023-03-27T21:36:23.699Z,1.50
2023-03-27T21:38:50.486Z,1.40
2023-03-27T21:41:17.523Z,1.40
2023-03-27T21:43:44.281Z,1.75
2023-03-27T21:46:11.237Z,1.58
2023-03-27T21:48:40.448Z,1.35
2023-03-27T21:51:08.456Z,1.73
2023-03-27T21:53:35.577Z,1.67
2023-03-27T21:56:02.476Z,1.42
2023-03-27T21:58:29.253Z,1.42
2023-03-27T22:00:57.503Z,2.13
2023-03-27T22:06:01.071Z,2.30
2023-03-27T22:08:37.009Z,1.50
2023-03-27T22:11:03.839Z,2.03
2023-03-27T22:13:30.716Z,1.52
2023-03-27T22:15:57.990Z,1.85
2023-03-27T22:18:24.916Z,1.47
2023-03-27T22:20:51.744Z,1.50
2023-03-27T22:23:18.336Z,1.63
2023-03-27T22:25:54.485Z,1.58
2023-03-27T22:28:21.161Z,1.75
2023-03-27T22:30:47.970Z,1.65
2023-03-27T22:33:14.582Z,2.13
2023-03-27T22:35:47.993Z,1.83
2023-03-27T22:38:15.411Z,1.83
2023-03-27T22:40:42.540Z,2.33
2023-03-27T22:43:09.130Z,1.50
2023-03-27T22:45:36.118Z,3.08
2023-03-27T22:48:02.865Z,1.25
2023-03-27T22:50:29.525Z,1.75
2023-03-27T22:52:56.209Z,2.10
2023-03-27T22:55:22.771Z,2.17
2023-03-27T22:57:49.475Z,1.70
2023-03-27T23:00:16.815Z,1.92
2023-03-27T23:02:43.408Z,1.60
2023-03-27T23:05:10.033Z,1.70
2023-03-27T23:07:36.620Z,1.67
2023-03-27T23:10:03.271Z,1.95
2023-03-27T23:12:29.881Z,1.70
2023-03-27T23:14:56.421Z,2.45
2023-03-27T23:17:23.216Z,1.45
2023-03-27T23:19:49.869Z,2.00
2023-03-27T23:22:16.418Z,1.52
2023-03-27T23:24:42.975Z,1.75
2023-03-27T23:27:09.598Z,1.70
2023-03-27T23:29:36.248Z,1.42
2023-03-27T23:32:02.973Z,1.65
2023-03-27T23:34:29.558Z,1.90
2023-03-27T23:36:56.125Z,1.65
2023-03-27T23:39:23.012Z,2.13
2023-03-27T23:41:49.567Z,1.50
2023-03-27T23:44:16.190Z,1.65
2023-03-27T23:46:42.758Z,1.85
2023-03-27T23:49:12.496Z,2.03
2023-03-27T23:51:39.069Z,1.70
2023-03-27T23:54:05.797Z,1.70
2023-03-27T23:56:32.397Z,1.60
2023-03-27T23:58:59.205Z,1.80
